sensor_id;sensor_type;location;lat;lon;timestamp;temperature;humidity
47757;SHT35;22147;52.388;13.390;2023-07-29T00:00:02;16.71;92.91
47757;SHT35;22147;52.388;13.390;2023-07-29T00:02:30;16.70;93.02
47757;SHT35;22147;52.388;13.390;2023-07-29T00:05:01;16.67;93.13
47757;SHT35;22147;52.388;13.390;2023-07-29T00:07:30;16.64;93.14
47757;SHT35;22147;52.388;13.390;2023-07-29T00:09:59;16.60;93.11
47757;SHT35;22147;52.388;13.390;2023-07-29T00:12:27;16.56;93.15
47757;SHT35;22147;52.388;13.390;2023-07-29T00:14:56;16.51;93.20
47757;SHT35;22147;52.388;13.390;2023-07-29T00:17:25;16.50;93.10
47757;SHT35;22147;52.388;13.390;2023-07-29T00:19:53;16.44;93.10
47757;SHT35;22147;52.388;13.390;2023-07-29T00:22:22;16.37;93.11
47757;SHT35;22147;52.388;13.390;2023-07-29T00:24:54;16.39;93.16
47757;SHT35;22147;52.388;13.390;2023-07-29T00:27:26;16.32;93.14
47757;SHT35;22147;52.388;13.390;2023-07-29T00:29:56;16.30;93.17
47757;SHT35;22147;52.388;13.390;2023-07-29T00:32:30;16.33;93.16
47757;SHT35;22147;52.388;13.390;2023-07-29T00:35:00;16.30;93.16
47757;SHT35;22147;52.388;13.390;2023-07-29T00:37:31;16.25;93.19
47757;SHT35;22147;52.388;13.390;2023-07-29T00:40:00;16.23;93.20
47757;SHT35;22147;52.388;13.390;2023-07-29T00:42:30;16.21;93.22
47757;SHT35;22147;52.388;13.390;2023-07-29T00:45:00;16.16;93.25
47757;SHT35;22147;52.388;13.390;2023-07-29T00:47:30;16.13;93.29
47757;SHT35;22147;52.388;13.390;2023-07-29T00:50:01;16.09;93.28
47757;SHT35;22147;52.388;13.390;2023-07-29T00:52:31;16.08;93.30
47757;SHT35;22147;52.388;13.390;2023-07-29T00:55:01;16.05;93.34
47757;SHT35;22147;52.388;13.390;2023-07-29T00:57:32;16.02;93.30
47757;SHT35;22147;52.388;13.390;2023-07-29T01:00:04;16.00;93.31
47757;SHT35;22147;52.388;13.390;2023-07-29T01:02:35;15.98;93.32
47757;SHT35;22147;52.388;13.390;2023-07-29T01:05:06;15.97;93.32
47757;SHT35;22147;52.388;13.390;2023-07-29T01:11:49;15.94;93.31
47757;SHT35;22147;52.388;13.390;2023-07-29T01:17:42;15.87;93.26
47757;SHT35;22147;52.388;13.390;2023-07-29T01:20:19;15.85;93.17
47757;SHT35;22147;52.388;13.390;2023-07-29T01:22:51;15.82;93.21
47757;SHT35;22147;52.388;13.390;2023-07-29T01:25:21;15.81;93.25
47757;SHT35;22147;52.388;13.390;2023-07-29T01:27:51;15.79;93.22
47757;SHT35;22147;52.388;13.390;2023-07-29T01:30:31;15.79;93.19
47757;SHT35;22147;52.388;13.390;2023-07-29T01:33:18;15.77;93.18
47757;SHT35;22147;52.388;13.390;2023-07-29T01:36:15;15.70;93.16
47757;SHT35;22147;52.388;13.390;2023-07-29T01:38:51;15.68;93.19
47757;SHT35;22147;52.388;13.390;2023-07-29T01:41:24;15.67;93.18
47757;SHT35;22147;52.388;13.390;2023-07-29T01:43:57;15.64;93.22
47757;SHT35;22147;52.388;13.390;2023-07-29T01:46:27;15.65;93.24
47757;SHT35;22147;52.388;13.390;2023-07-29T01:48:56;15.64;93.24
47757;SHT35;22147;52.388;13.390;2023-07-29T01:51:24;15.63;93.24
47757;SHT35;22147;52.388;13.390;2023-07-29T01:53:52;15.63;93.27
47757;SHT35;22147;52.388;13.390;2023-07-29T01:56:21;15.64;93.30
47757;SHT35;22147;52.388;13.390;2023-07-29T01:58:50;15.61;93.26
47757;SHT35;22147;52.388;13.390;2023-07-29T02:01:19;15.58;93.31
47757;SHT35;22147;52.388;13.390;2023-07-29T02:03:48;15.57;93.30
47757;SHT35;22147;52.388;13.390;2023-07-29T02:06:24;15.54;93.32
47757;SHT35;22147;52.388;13.390;2023-07-29T02:08:56;15.51;93.28
47757;SHT35;22147;52.388;13.390;2023-07-29T02:11:26;15.49;93.30
47757;SHT35;22147;52.388;13.390;2023-07-29T02:13:57;15.47;93.31
47757;SHT35;22147;52.388;13.390;2023-07-29T02:16:28;15.44;93.32
47757;SHT35;22147;52.388;13.390;2023-07-29T02:18:59;15.44;93.28
47757;SHT35;22147;52.388;13.390;2023-07-29T02:21:29;15.42;93.31
47757;SHT35;22147;52.388;13.390;2023-07-29T02:23:59;15.39;93.31
47757;SHT35;22147;52.388;13.390;2023-07-29T02:26:29;15.39;93.33
47757;SHT35;22147;52.388;13.390;2023-07-29T02:29:00;15.37;93.32
47757;SHT35;22147;52.388;13.390;2023-07-29T02:31:30;15.34;93.32
47757;SHT35;22147;52.388;13.390;2023-07-29T02:34:00;15.33;93.33
47757;SHT35;22147;52.388;13.390;2023-07-29T02:36:30;15.30;93.30
47757;SHT35;22147;52.388;13.390;2023-07-29T02:39:01;15.32;93.31
47757;SHT35;22147;52.388;13.390;2023-07-29T02:41:31;15.32;93.32
47757;SHT35;22147;52.388;13.390;2023-07-29T02:44:02;15.30;93.33
47757;SHT35;22147;52.388;13.390;2023-07-29T02:46:33;15.27;93.28
47757;SHT35;22147;52.388;13.390;2023-07-29T02:49:05;15.26;93.33
47757;SHT35;22147;52.388;13.390;2023-07-29T02:51:35;15.26;93.32
47757;SHT35;22147;52.388;13.390;2023-07-29T02:54:05;15.25;93.31
47757;SHT35;22147;52.388;13.390;2023-07-29T02:56:35;15.23;93.35
47757;SHT35;22147;52.388;13.390;2023-07-29T02:59:06;15.22;93.36
47757;SHT35;22147;52.388;13.390;2023-07-29T03:01:36;15.23;93.35
47757;SHT35;22147;52.388;13.390;2023-07-29T03:04:07;15.22;93.37
47757;SHT35;22147;52.388;13.390;2023-07-29T03:06:38;15.20;93.39
47757;SHT35;22147;52.388;13.390;2023-07-29T03:09:08;15.22;93.43
47757;SHT35;22147;52.388;13.390;2023-07-29T03:11:36;15.23;93.47
47757;SHT35;22147;52.388;13.390;2023-07-29T03:14:05;15.29;93.47
47757;SHT35;22147;52.388;13.390;2023-07-29T03:16:33;15.32;93.54
47757;SHT35;22147;52.388;13.390;2023-07-29T03:19:02;15.32;93.54
47757;SHT35;22147;52.388;13.390;2023-07-29T03:21:30;15.33;93.69
47757;SHT35;22147;52.388;13.390;2023-07-29T03:23:58;15.36;93.77
47757;SHT35;22147;52.388;13.390;2023-07-29T03:26:27;15.39;93.82
47757;SHT35;22147;52.388;13.390;2023-07-29T03:28:55;15.39;93.81
47757;SHT35;22147;52.388;13.390;2023-07-29T03:31:24;15.39;93.83
47757;SHT35;22147;52.388;13.390;2023-07-29T03:33:52;15.37;93.87
47757;SHT35;22147;52.388;13.390;2023-07-29T03:36:21;15.40;93.89
47757;SHT35;22147;52.388;13.390;2023-07-29T03:38:49;15.40;93.97
47757;SHT35;22147;52.388;13.390;2023-07-29T03:41:17;15.36;93.99
47757;SHT35;22147;52.388;13.390;2023-07-29T03:43:46;15.39;94.04
47757;SHT35;22147;52.388;13.390;2023-07-29T03:46:14;15.40;94.07
47757;SHT35;22147;52.388;13.390;2023-07-29T03:48:46;15.43;94.14
47757;SHT35;22147;52.388;13.390;2023-07-29T03:51:14;15.46;94.17
47757;SHT35;22147;52.388;13.390;2023-07-29T03:53:43;15.50;94.23
47757;SHT35;22147;52.388;13.390;2023-07-29T03:56:11;15.57;94.22
47757;SHT35;22147;52.388;13.390;2023-07-29T03:58:40;15.61;94.33
47757;SHT35;22147;52.388;13.390;2023-07-29T04:01:08;15.74;94.34
47757;SHT35;22147;52.388;13.390;2023-07-29T04:03:37;15.79;94.36
47757;SHT35;22147;52.388;13.390;2023-07-29T04:06:05;15.88;94.36
47757;SHT35;22147;52.388;13.390;2023-07-29T04:08:34;15.94;94.39
47757;SHT35;22147;52.388;13.390;2023-07-29T04:11:02;16.00;94.43
47757;SHT35;22147;52.388;13.390;2023-07-29T04:13:30;16.06;94.48
47757;SHT35;22147;52.388;13.390;2023-07-29T04:15:59;16.16;94.47
47757;SHT35;22147;52.388;13.390;2023-07-29T04:18:27;16.18;94.50
47757;SHT35;22147;52.388;13.390;2023-07-29T04:20:56;16.22;94.45
47757;SHT35;22147;52.388;13.390;2023-07-29T04:23:24;16.28;94.46
47757;SHT35;22147;52.388;13.390;2023-07-29T04:25:52;16.30;94.42
47757;SHT35;22147;52.388;13.390;2023-07-29T04:28:21;16.30;94.41
47757;SHT35;22147;52.388;13.390;2023-07-29T04:30:49;16.33;94.39
47757;SHT35;22147;52.388;13.390;2023-07-29T04:33:18;16.33;94.36
47757;SHT35;22147;52.388;13.390;2023-07-29T04:35:46;16.36;94.35
47757;SHT35;22147;52.388;13.390;2023-07-29T04:38:15;16.37;94.32
47757;SHT35;22147;52.388;13.390;2023-07-29T04:40:43;16.40;94.35
47757;SHT35;22147;52.388;13.390;2023-07-29T04:43:12;16.44;94.28
47757;SHT35;22147;52.388;13.390;2023-07-29T04:45:44;16.47;94.27
47757;SHT35;22147;52.388;13.390;2023-07-29T04:48:14;16.56;94.34
47757;SHT35;22147;52.388;13.390;2023-07-29T04:50:44;16.67;94.44
47757;SHT35;22147;52.388;13.390;2023-07-29T04:53:15;16.76;94.40
47757;SHT35;22147;52.388;13.390;2023-07-29T04:55:45;16.85;94.45
47757;SHT35;22147;52.388;13.390;2023-07-29T04:58:16;16.94;94.44
47757;SHT35;22147;52.388;13.390;2023-07-29T05:00:49;16.98;94.42
47757;SHT35;22147;52.388;13.390;2023-07-29T05:03:19;17.05;94.33
47757;SHT35;22147;52.388;13.390;2023-07-29T05:05:49;17.12;94.33
47757;SHT35;22147;52.388;13.390;2023-07-29T05:08:21;17.18;94.26
47757;SHT35;22147;52.388;13.390;2023-07-29T05:10:51;17.24;94.23
47757;SHT35;22147;52.388;13.390;2023-07-29T05:13:23;17.39;94.31
47757;SHT35;22147;52.388;13.390;2023-07-29T05:15:53;17.59;94.33
47757;SHT35;22147;52.388;13.390;2023-07-29T05:18:23;17.78;94.23
47757;SHT35;22147;52.388;13.390;2023-07-29T05:20:53;17.96;94.00
47757;SHT35;22147;52.388;13.390;2023-07-29T05:23:24;18.11;93.80
47757;SHT35;22147;52.388;13.390;2023-07-29T05:25:53;18.20;93.19
47757;SHT35;22147;52.388;13.390;2023-07-29T05:28:24;18.34;92.90
47757;SHT35;22147;52.388;13.390;2023-07-29T05:30:54;18.36;92.55
47757;SHT35;22147;52.388;13.390;2023-07-29T05:33:24;18.42;92.43
47757;SHT35;22147;52.388;13.390;2023-07-29T05:35:55;18.45;92.39
47757;SHT35;22147;52.388;13.390;2023-07-29T05:38:26;18.46;92.18
47757;SHT35;22147;52.388;13.390;2023-07-29T05:40:55;18.56;92.16
47757;SHT35;22147;52.388;13.390;2023-07-29T05:43:25;18.93;92.20
47757;SHT35;22147;52.388;13.390;2023-07-29T05:45:55;19.10;91.38
47757;SHT35;22147;52.388;13.390;2023-07-29T05:48:26;19.31;90.59
47757;SHT35;22147;52.388;13.390;2023-07-29T05:50:56;19.50;90.12
47757;SHT35;22147;52.388;13.390;2023-07-29T05:53:26;19.38;89.48
47757;SHT35;22147;52.388;13.390;2023-07-29T05:55:56;19.44;89.78
47757;SHT35;22147;52.388;13.390;2023-07-29T05:58:26;19.65;89.80
47757;SHT35;22147;52.388;13.390;2023-07-29T06:00:56;19.68;89.18
47757;SHT35;22147;52.388;13.390;2023-07-29T06:03:26;19.81;89.36
47757;SHT35;22147;52.388;13.390;2023-07-29T06:05:56;19.96;89.11
47757;SHT35;22147;52.388;13.390;2023-07-29T06:08:26;20.24;88.49
47757;SHT35;22147;52.388;13.390;2023-07-29T06:10:58;20.20;87.06
47757;SHT35;22147;52.388;13.390;2023-07-29T06:13:28;20.20;87.63
47757;SHT35;22147;52.388;13.390;2023-07-29T06:15:58;20.36;88.22
47757;SHT35;22147;52.388;13.390;2023-07-29T06:18:28;20.33;87.02
47757;SHT35;22147;52.388;13.390;2023-07-29T06:20:58;20.50;87.66
47757;SHT35;22147;52.388;13.390;2023-07-29T06:23:29;20.74;86.93
47757;SHT35;22147;52.388;13.390;2023-07-29T06:25:59;21.08;85.74
47757;SHT35;22147;52.388;13.390;2023-07-29T06:28:29;21.27;84.27
47757;SHT35;22147;52.388;13.390;2023-07-29T06:30:59;21.64;83.59
47757;SHT35;22147;52.388;13.390;2023-07-29T06:33:29;21.75;82.52
47757;SHT35;22147;52.388;13.390;2023-07-29T06:36:00;21.90;82.30
47757;SHT35;22147;52.388;13.390;2023-07-29T06:38:30;22.11;81.39
47757;SHT35;22147;52.388;13.390;2023-07-29T06:41:00;22.28;80.67
47757;SHT35;22147;52.388;13.390;2023-07-29T06:43:30;22.11;79.85
47757;SHT35;22147;52.388;13.390;2023-07-29T06:46:01;22.28;80.60
47757;SHT35;22147;52.388;13.390;2023-07-29T06:48:29;22.69;80.06
47757;SHT35;22147;52.388;13.390;2023-07-29T06:50:58;22.93;79.41
47757;SHT35;22147;52.388;13.390;2023-07-29T06:53:29;22.96;78.27
47757;SHT35;22147;52.388;13.390;2023-07-29T06:56:01;22.93;78.83
47757;SHT35;22147;52.388;13.390;2023-07-29T06:58:29;23.17;77.44
47757;SHT35;22147;52.388;13.390;2023-07-29T07:00:58;23.24;78.62
47757;SHT35;22147;52.388;13.390;2023-07-29T07:03:26;23.34;77.93
47757;SHT35;22147;52.388;13.390;2023-07-29T07:05:54;23.33;76.85
47757;SHT35;22147;52.388;13.390;2023-07-29T07:08:23;23.38;77.62
47757;SHT35;22147;52.388;13.390;2023-07-29T07:10:51;23.27;77.61
47757;SHT35;22147;52.388;13.390;2023-07-29T07:13:20;23.34;76.44
47757;SHT35;22147;52.388;13.390;2023-07-29T07:15:48;23.28;77.47
47757;SHT35;22147;52.388;13.390;2023-07-29T07:18:17;23.55;76.89
47757;SHT35;22147;52.388;13.390;2023-07-29T07:20:49;23.76;76.63
47757;SHT35;22147;52.388;13.390;2023-07-29T07:23:20;23.88;74.36
47757;SHT35;22147;52.388;13.390;2023-07-29T07:25:50;23.92;74.78
47757;SHT35;22147;52.388;13.390;2023-07-29T07:28:20;23.83;74.16
47757;SHT35;22147;52.388;13.390;2023-07-29T07:30:51;23.79;75.43
47757;SHT35;22147;52.388;13.390;2023-07-29T07:33:22;23.95;74.69
47757;SHT35;22147;52.388;13.390;2023-07-29T07:35:52;23.95;75.53
47757;SHT35;22147;52.388;13.390;2023-07-29T07:38:22;24.10;74.48
47757;SHT35;22147;52.388;13.390;2023-07-29T07:40:56;24.64;72.36
47757;SHT35;22147;52.388;13.390;2023-07-29T07:43:25;24.63;71.17
47757;SHT35;22147;52.388;13.390;2023-07-29T07:45:59;24.34;72.38
47757;SHT35;22147;52.388;13.390;2023-07-29T07:48:30;23.93;72.43
47757;SHT35;22147;52.388;13.390;2023-07-29T07:51:12;23.71;74.02
47757;SHT35;22147;52.388;13.390;2023-07-29T07:53:42;23.75;74.54
47757;SHT35;22147;52.388;13.390;2023-07-29T07:56:12;23.90;75.25
47757;SHT35;22147;52.388;13.390;2023-07-29T07:58:42;24.00;73.18
47757;SHT35;22147;52.388;13.390;2023-07-29T08:01:12;23.86;73.84
47757;SHT35;22147;52.388;13.390;2023-07-29T08:03:42;23.85;74.80
47757;SHT35;22147;52.388;13.390;2023-07-29T08:06:12;23.79;73.78
47757;SHT35;22147;52.388;13.390;2023-07-29T08:08:42;23.71;75.08
47757;SHT35;22147;52.388;13.390;2023-07-29T08:11:12;23.65;75.32
47757;SHT35;22147;52.388;13.390;2023-07-29T08:13:42;23.86;74.25
47757;SHT35;22147;52.388;13.390;2023-07-29T08:16:13;23.79;74.91
47757;SHT35;22147;52.388;13.390;2023-07-29T08:18:42;23.65;74.33
47757;SHT35;22147;52.388;13.390;2023-07-29T08:21:12;23.83;73.58
47757;SHT35;22147;52.388;13.390;2023-07-29T08:23:42;24.12;74.83
47757;SHT35;22147;52.388;13.390;2023-07-29T08:26:11;23.96;72.59
47757;SHT35;22147;52.388;13.390;2023-07-29T08:28:40;24.12;74.19
47757;SHT35;22147;52.388;13.390;2023-07-29T08:31:07;23.99;73.89
47757;SHT35;22147;52.388;13.390;2023-07-29T08:33:36;24.03;74.22
47757;SHT35;22147;52.388;13.390;2023-07-29T08:36:05;24.00;73.73
47757;SHT35;22147;52.388;13.390;2023-07-29T08:38:33;24.08;74.40
47757;SHT35;22147;52.388;13.390;2023-07-29T08:41:16;24.17;72.33
47757;SHT35;22147;52.388;13.390;2023-07-29T08:44:03;24.33;73.99
47757;SHT35;22147;52.388;13.390;2023-07-29T08:46:43;24.31;73.41
47757;SHT35;22147;52.388;13.390;2023-07-29T08:49:15;24.54;71.99
47757;SHT35;22147;52.388;13.390;2023-07-29T08:51:53;24.67;71.07
47757;SHT35;22147;52.388;13.390;2023-07-29T08:54:21;24.65;72.13
47757;SHT35;22147;52.388;13.390;2023-07-29T08:56:52;24.94;71.17
47757;SHT35;22147;52.388;13.390;2023-07-29T08:59:22;24.61;71.04
47757;SHT35;22147;52.388;13.390;2023-07-29T09:01:54;24.70;70.91
47757;SHT35;22147;52.388;13.390;2023-07-29T09:04:27;24.51;70.83
47757;SHT35;22147;52.388;13.390;2023-07-29T09:07:00;23.93;72.74
47757;SHT35;22147;52.388;13.390;2023-07-29T09:09:30;23.89;74.57
47757;SHT35;22147;52.388;13.390;2023-07-29T09:11:59;24.16;75.03
47757;SHT35;22147;52.388;13.390;2023-07-29T09:14:28;24.37;73.69
47757;SHT35;22147;52.388;13.390;2023-07-29T09:16:57;24.51;72.33
47757;SHT35;22147;52.388;13.390;2023-07-29T09:19:28;24.41;71.97
47757;SHT35;22147;52.388;13.390;2023-07-29T09:21:56;24.71;72.88
47757;SHT35;22147;52.388;13.390;2023-07-29T09:24:25;24.87;71.96
47757;SHT35;22147;52.388;13.390;2023-07-29T09:26:59;24.88;71.55
47757;SHT35;22147;52.388;13.390;2023-07-29T09:29:29;25.11;71.31
47757;SHT35;22147;52.388;13.390;2023-07-29T09:32:21;25.15;70.65
47757;SHT35;22147;52.388;13.390;2023-07-29T09:34:51;24.84;70.43
47757;SHT35;22147;52.388;13.390;2023-07-29T09:37:23;25.05;71.99
47757;SHT35;22147;52.388;13.390;2023-07-29T09:39:53;25.30;67.93
47757;SHT35;22147;52.388;13.390;2023-07-29T09:42:23;25.39;71.25
47757;SHT35;22147;52.388;13.390;2023-07-29T09:44:53;25.39;69.10
47757;SHT35;22147;52.388;13.390;2023-07-29T09:47:25;25.28;69.58
47757;SHT35;22147;52.388;13.390;2023-07-29T09:49:55;25.53;68.29
47757;SHT35;22147;52.388;13.390;2023-07-29T09:52:25;25.66;69.18
47757;SHT35;22147;52.388;13.390;2023-07-29T09:54:55;25.67;68.92
47757;SHT35;22147;52.388;13.390;2023-07-29T09:57:26;25.78;67.76
47757;SHT35;22147;52.388;13.390;2023-07-29T09:59:57;25.33;68.20
47757;SHT35;22147;52.388;13.390;2023-07-29T10:02:27;25.45;69.23
47757;SHT35;22147;52.388;13.390;2023-07-29T10:05:01;26.07;68.96
47757;SHT35;22147;52.388;13.390;2023-07-29T10:07:39;25.94;67.44
47757;SHT35;22147;52.388;13.390;2023-07-29T10:10:09;26.00;67.12
47757;SHT35;22147;52.388;13.390;2023-07-29T10:12:39;25.71;68.95
47757;SHT35;22147;52.388;13.390;2023-07-29T10:15:13;25.39;69.93
47757;SHT35;22147;52.388;13.390;2023-07-29T10:17:49;25.50;67.80
47757;SHT35;22147;52.388;13.390;2023-07-29T10:20:21;25.76;68.76
47757;SHT35;22147;52.388;13.390;2023-07-29T10:22:59;25.95;67.80
47757;SHT35;22147;52.388;13.390;2023-07-29T10:25:43;26.10;66.59
47757;SHT35;22147;52.388;13.390;2023-07-29T10:28:20;26.34;65.03
47757;SHT35;22147;52.388;13.390;2023-07-29T10:30:52;26.62;61.55
47757;SHT35;22147;52.388;13.390;2023-07-29T10:33:23;26.72;60.78
47757;SHT35;22147;52.388;13.390;2023-07-29T10:35:55;26.32;62.28
47757;SHT35;22147;52.388;13.390;2023-07-29T10:38:26;26.38;63.54
47757;SHT35;22147;52.388;13.390;2023-07-29T10:40:58;26.58;63.77
47757;SHT35;22147;52.388;13.390;2023-07-29T10:43:37;26.69;62.51
47757;SHT35;22147;52.388;13.390;2023-07-29T10:46:20;26.52;62.04
47757;SHT35;22147;52.388;13.390;2023-07-29T10:51:37;26.69;60.62
47757;SHT35;22147;52.388;13.390;2023-07-29T10:54:13;26.68;61.09
47757;SHT35;22147;52.388;13.390;2023-07-29T10:56:49;26.53;62.13
47757;SHT35;22147;52.388;13.390;2023-07-29T11:01:58;26.36;63.61
47757;SHT35;22147;52.388;13.390;2023-07-29T11:04:29;26.28;63.39
47757;SHT35;22147;52.388;13.390;2023-07-29T11:20:34;23.35;77.73
47757;SHT35;22147;52.388;13.390;2023-07-29T11:23:04;23.04;79.19
47757;SHT35;22147;52.388;13.390;2023-07-29T11:25:33;22.65;80.61
47757;SHT35;22147;52.388;13.390;2023-07-29T11:28:02;22.50;81.09
47757;SHT35;22147;52.388;13.390;2023-07-29T11:30:39;22.42;81.81
47757;SHT35;22147;52.388;13.390;2023-07-29T11:33:10;22.41;80.50
47757;SHT35;22147;52.388;13.390;2023-07-29T11:35:41;22.38;81.45
47757;SHT35;22147;52.388;13.390;2023-07-29T11:38:17;22.35;81.76
47757;SHT35;22147;52.388;13.390;2023-07-29T11:41:01;22.50;82.41
47757;SHT35;22147;52.388;13.390;2023-07-29T11:43:36;22.70;83.29
47757;SHT35;22147;52.388;13.390;2023-07-29T11:46:04;22.96;82.36
47757;SHT35;22147;52.388;13.390;2023-07-29T11:48:33;23.07;82.23
47757;SHT35;22147;52.388;13.390;2023-07-29T11:51:03;23.06;81.82
47757;SHT35;22147;52.388;13.390;2023-07-29T11:53:33;23.03;82.03
47757;SHT35;22147;52.388;13.390;2023-07-29T11:56:03;22.98;82.43
47757;SHT35;22147;52.388;13.390;2023-07-29T11:58:33;22.93;81.89
47757;SHT35;22147;52.388;13.390;2023-07-29T12:01:03;22.80;81.96
47757;SHT35;22147;52.388;13.390;2023-07-29T12:03:33;22.73;82.43
47757;SHT35;22147;52.388;13.390;2023-07-29T12:06:03;22.68;82.60
47757;SHT35;22147;52.388;13.390;2023-07-29T12:08:33;22.48;82.65
47757;SHT35;22147;52.388;13.390;2023-07-29T12:11:04;22.35;83.25
47757;SHT35;22147;52.388;13.390;2023-07-29T12:13:36;22.22;83.91
47757;SHT35;22147;52.388;13.390;2023-07-29T12:16:05;22.20;84.33
47757;SHT35;22147;52.388;13.390;2023-07-29T12:18:36;22.10;83.96
47757;SHT35;22147;52.388;13.390;2023-07-29T12:21:04;21.91;84.44
47757;SHT35;22147;52.388;13.390;2023-07-29T12:23:33;21.78;85.28
47757;SHT35;22147;52.388;13.390;2023-07-29T12:26:01;21.66;85.74
47757;SHT35;22147;52.388;13.390;2023-07-29T12:28:30;21.60;86.39
47757;SHT35;22147;52.388;13.390;2023-07-29T12:30:59;21.57;86.83
47757;SHT35;22147;52.388;13.390;2023-07-29T12:33:36;21.53;86.65
47757;SHT35;22147;52.388;13.390;2023-07-29T12:36:08;21.63;86.99
47757;SHT35;22147;52.388;13.390;2023-07-29T12:38:38;21.80;87.28
47757;SHT35;22147;52.388;13.390;2023-07-29T12:41:08;22.00;87.65
47757;SHT35;22147;52.388;13.390;2023-07-29T12:43:39;22.29;85.11
47757;SHT35;22147;52.388;13.390;2023-07-29T12:46:09;22.38;84.23
47757;SHT35;22147;52.388;13.390;2023-07-29T12:48:38;22.58;82.86
47757;SHT35;22147;52.388;13.390;2023-07-29T12:51:08;22.63;81.39
47757;SHT35;22147;52.388;13.390;2023-07-29T12:53:38;22.73;79.11
47757;SHT35;22147;52.388;13.390;2023-07-29T12:56:08;22.62;79.72
47757;SHT35;22147;52.388;13.390;2023-07-29T12:58:38;22.56;80.95
47757;SHT35;22147;52.388;13.390;2023-07-29T13:01:08;22.70;80.23
47757;SHT35;22147;52.388;13.390;2023-07-29T13:03:39;22.91;80.39
47757;SHT35;22147;52.388;13.390;2023-07-29T13:06:09;23.17;80.03
47757;SHT35;22147;52.388;13.390;2023-07-29T13:08:39;23.28;79.00
47757;SHT35;22147;52.388;13.390;2023-07-29T13:11:09;23.23;77.81
47757;SHT35;22147;52.388;13.390;2023-07-29T13:13:39;22.97;77.85
47757;SHT35;22147;52.388;13.390;2023-07-29T13:16:09;22.73;79.48
47757;SHT35;22147;52.388;13.390;2023-07-29T13:18:40;22.72;77.85
47757;SHT35;22147;52.388;13.390;2023-07-29T13:21:10;22.58;78.28
47757;SHT35;22147;52.388;13.390;2023-07-29T13:23:40;22.56;79.38
47757;SHT35;22147;52.388;13.390;2023-07-29T13:26:10;22.60;79.71
47757;SHT35;22147;52.388;13.390;2023-07-29T13:28:41;22.73;80.00
47757;SHT35;22147;52.388;13.390;2023-07-29T13:31:10;22.96;79.90
47757;SHT35;22147;52.388;13.390;2023-07-29T13:33:40;23.33;78.27
47757;SHT35;22147;52.388;13.390;2023-07-29T13:36:10;23.52;78.24
47757;SHT35;22147;52.388;13.390;2023-07-29T13:38:41;23.78;78.52
47757;SHT35;22147;52.388;13.390;2023-07-29T13:41:11;24.10;78.06
47757;SHT35;22147;52.388;13.390;2023-07-29T13:43:41;24.34;74.69
47757;SHT35;22147;52.388;13.390;2023-07-29T13:46:11;24.59;75.23
47757;SHT35;22147;52.388;13.390;2023-07-29T13:48:41;24.75;73.73
47757;SHT35;22147;52.388;13.390;2023-07-29T13:51:11;25.22;72.94
47757;SHT35;22147;52.388;13.390;2023-07-29T13:53:41;25.19;69.79
47757;SHT35;22147;52.388;13.390;2023-07-29T14:00:28;24.94;69.31
47757;SHT35;22147;52.388;13.390;2023-07-29T14:02:59;24.74;72.60
47757;SHT35;22147;52.388;13.390;2023-07-29T14:05:29;24.71;71.56
47757;SHT35;22147;52.388;13.390;2023-07-29T14:07:59;24.47;72.04
47757;SHT35;22147;52.388;13.390;2023-07-29T14:10:29;24.47;72.86
47757;SHT35;22147;52.388;13.390;2023-07-29T14:13:00;24.67;72.10
47757;SHT35;22147;52.388;13.390;2023-07-29T14:15:30;24.77;71.48
47757;SHT35;22147;52.388;13.390;2023-07-29T14:18:05;24.89;71.96
47757;SHT35;22147;52.388;13.390;2023-07-29T14:20:36;25.18;70.82
47757;SHT35;22147;52.388;13.390;2023-07-29T14:23:06;25.07;71.13
47757;SHT35;22147;52.388;13.390;2023-07-29T14:25:36;25.09;70.96
47757;SHT35;22147;52.388;13.390;2023-07-29T14:28:07;25.16;71.55
47757;SHT35;22147;52.388;13.390;2023-07-29T14:30:37;25.49;68.97
47757;SHT35;22147;52.388;13.390;2023-07-29T14:33:07;25.23;69.42
47757;SHT35;22147;52.388;13.390;2023-07-29T14:35:37;25.09;69.71
47757;SHT35;22147;52.388;13.390;2023-07-29T14:38:07;25.12;70.31
47757;SHT35;22147;52.388;13.390;2023-07-29T14:40:38;25.37;70.49
47757;SHT35;22147;52.388;13.390;2023-07-29T14:43:08;25.81;68.47
47757;SHT35;22147;52.388;13.390;2023-07-29T14:45:38;26.05;68.09
47757;SHT35;22147;52.388;13.390;2023-07-29T14:48:08;26.26;67.64
47757;SHT35;22147;52.388;13.390;2023-07-29T14:50:38;26.01;65.82
47757;SHT35;22147;52.388;13.390;2023-07-29T14:53:09;25.43;68.03
47757;SHT35;22147;52.388;13.390;2023-07-29T14:55:39;24.85;69.20
47757;SHT35;22147;52.388;13.390;2023-07-29T14:58:09;24.47;70.14
47757;SHT35;22147;52.388;13.390;2023-07-29T15:00:39;24.23;71.38
47757;SHT35;22147;52.388;13.390;2023-07-29T15:03:10;24.04;72.44
47757;SHT35;22147;52.388;13.390;2023-07-29T15:05:40;23.88;73.06
47757;SHT35;22147;52.388;13.390;2023-07-29T15:08:10;23.71;74.03
47757;SHT35;22147;52.388;13.390;2023-07-29T15:10:40;23.61;74.56
47757;SHT35;22147;52.388;13.390;2023-07-29T15:13:10;23.55;74.51
47757;SHT35;22147;52.388;13.390;2023-07-29T15:15:45;23.51;75.63
47757;SHT35;22147;52.388;13.390;2023-07-29T15:18:13;23.55;76.41
47757;SHT35;22147;52.388;13.390;2023-07-29T15:20:43;23.61;77.90
47757;SHT35;22147;52.388;13.390;2023-07-29T15:23:14;23.64;75.68
47757;SHT35;22147;52.388;13.390;2023-07-29T15:25:44;23.69;76.17
47757;SHT35;22147;52.388;13.390;2023-07-29T15:28:14;23.75;75.30
47757;SHT35;22147;52.388;13.390;2023-07-29T15:30:45;23.64;75.98
47757;SHT35;22147;52.388;13.390;2023-07-29T15:33:15;23.55;76.36
47757;SHT35;22147;52.388;13.390;2023-07-29T15:35:45;23.44;75.21
47757;SHT35;22147;52.388;13.390;2023-07-29T15:38:15;23.35;76.28
47757;SHT35;22147;52.388;13.390;2023-07-29T15:40:46;23.21;76.95
47757;SHT35;22147;52.388;13.390;2023-07-29T15:43:19;23.13;77.20
47757;SHT35;22147;52.388;13.390;2023-07-29T15:45:49;22.91;79.52
47757;SHT35;22147;52.388;13.390;2023-07-29T15:48:20;22.56;75.26
47757;SHT35;22147;52.388;13.390;2023-07-29T15:50:50;21.74;75.25
47757;SHT35;22147;52.388;13.390;2023-07-29T15:53:20;20.95;76.50
47757;SHT35;22147;52.388;13.390;2023-07-29T15:55:50;20.57;79.89
47757;SHT35;22147;52.388;13.390;2023-07-29T15:58:19;20.52;80.72
47757;SHT35;22147;52.388;13.390;2023-07-29T16:00:47;21.06;81.62
47757;SHT35;22147;52.388;13.390;2023-07-29T16:03:17;21.35;78.11
47757;SHT35;22147;52.388;13.390;2023-07-29T16:05:48;21.73;76.10